Portada
METAR-TAF:

METAR-TAF

Aeropuertos :

Milford Municipal Airport (Ben and Judy Briscoe Field)

Milford, Utah, Estados Unidos

latitud: 38-25-21N, longitud: 113-00-35W, altitud: 1536 m

Observación

El informe se hizo hace 8 minutos, a las 18:52 UTC
Viento 9 kt del norte-noreste con ráfagas de 17 kt
Temperatura 27°C
Humedad 14%
Presión 1020 hPa
Visibilidad: 16.1 km
Cielo despejado

METAR: KMLF 241852Z AUTO 02009G17KT 10SM CLR 27/M03 A3013 RMK AO2 WSHFT 1811 SLP132 T02671033

Hora: 13:00 (19:00 UTC)


TAF: falta

Observaciones y pronósticos meteorológicos de más de 4000 aeropuertos (mensajes METAR y TAF).

Los puntos amarillos y rojos representan las estaciones disponibles.

Ponga el ratón en el punto deseado para ver el nombre de la estación.

Haga clic para ver las observaciones y los pronósticos meteorológicos.

Para cambiar el mapa : haga clic en los botones verdes con una cruz de color negro para hacer un zoom, en el botón verde con un guión para alejar o en las flechas verdes para mapas adyacentes.


METAR-TAF: